aviador You're here:

KHEY Decoded Metar

in _UNIDENTIFIED
Report Time2017-11-22 23:21:00
UTC Time2017-11-22 23:41:33
Flight Rules vfr VFR
Wind340° at 04 kt
W.Decomp.*RWY 35: 4.0 kt HW 0.5 kt LCW
W.Rank340° ranks 2
Current wind is below 340° avg. (6.0)
Visibility9999 m
Phenomena:N/A
Clouds:Scattered 200 Hf
Expected CloudBase > 3,600 ft AGL from Temp-Dew spread
CeilingNone
Temp16°C (ISA +2)
Dew Point07°C (55% RH)
AAT13.9°C
QNH1017 hPa
Density Alt512 ft
Elevation318 ft
Report Wrong Elevation
Raw Report
KHEY 222321Z AUTO 34004KT 10SM SCT200 16/07 A3004 RMK AO2
SLP174=

Extra information for KHEY:More info

Metar Taf Metar & Taf Last 4 Metars F.Rules Stats Wind Profile Meteogram Temp Stats Metar ALERT Operation Metar Decoded Social comments